createdAt,value
2023-03-02T00:02:00.836Z,-0.41
2023-03-02T00:05:11.034Z,-0.47
2023-03-02T00:08:14.366Z,-0.51
2023-03-02T00:11:15.779Z,-0.56
2023-03-02T00:14:19.793Z,-0.61
2023-03-02T00:17:20.916Z,-0.66
2023-03-02T00:20:24.803Z,-0.71
2023-03-02T00:23:24.849Z,-0.75
2023-03-02T00:26:20.113Z,-0.76
2023-03-02T00:29:19.949Z,-0.78
2023-03-02T00:32:23.974Z,-0.79
2023-03-02T00:35:23.828Z,-0.77
2023-03-02T00:38:23.915Z,-0.76
2023-03-02T00:41:27.862Z,-0.76
2023-03-02T00:44:27.878Z,-0.76
2023-03-02T00:47:28.832Z,-0.79
2023-03-02T00:50:28.883Z,-0.83
2023-03-02T00:53:36.944Z,-0.84
2023-03-02T00:56:37.831Z,-0.85
2023-03-02T00:59:40.891Z,-0.85
2023-03-02T01:02:54.024Z,-0.84
2023-03-02T01:05:55.882Z,-0.84
2023-03-02T01:08:56.849Z,-0.86
2023-03-02T01:12:04.184Z,-0.88
2023-03-02T01:15:04.941Z,-0.92
2023-03-02T01:18:04.882Z,-0.94
2023-03-02T01:21:14.899Z,-0.98
2023-03-02T01:24:16.915Z,-1.03
2023-03-02T01:27:17.909Z,-1.07
2023-03-02T01:30:17.917Z,-1.10
2023-03-02T01:33:18.912Z,-1.12
2023-03-02T01:36:20.910Z,-1.16
2023-03-02T01:39:22.928Z,-1.21
2023-03-02T01:42:25.141Z,-1.27
2023-03-02T01:46:01.990Z,-1.32
2023-03-02T01:49:18.253Z,-1.40
2023-03-02T01:52:29.936Z,-1.44
2023-03-02T01:55:33.961Z,-1.45
2023-03-02T01:58:40.429Z,-1.46
2023-03-02T02:01:47.244Z,-1.46
2023-03-02T02:04:48.016Z,-1.49
2023-03-02T02:07:52.258Z,-1.51
2023-03-02T02:10:51.968Z,-1.53
2023-03-02T02:13:54.029Z,-1.57
2023-03-02T02:16:58.127Z,-1.61
2023-03-02T02:20:15.977Z,-1.64
2023-03-02T02:23:40.160Z,-1.64
2023-03-02T02:26:54.008Z,-1.66
2023-03-02T02:29:59.058Z,-1.67
2023-03-02T02:32:59.073Z,-1.68
2023-03-02T02:35:59.016Z,-1.69
2023-03-02T02:39:03.015Z,-1.64
2023-03-02T02:42:04.257Z,-1.61
2023-03-02T02:45:05.060Z,-1.63
2023-03-02T02:48:12.132Z,-1.66
2023-03-02T02:51:14.066Z,-1.66
2023-03-02T02:54:15.044Z,-1.67
2023-03-02T02:57:15.031Z,-1.69
2023-03-02T03:00:15.411Z,-1.69
2023-03-02T03:03:38.182Z,-1.68
2023-03-02T03:06:48.052Z,-1.65
2023-03-02T03:09:49.197Z,-1.64
2023-03-02T03:13:05.452Z,-1.63
2023-03-02T03:16:06.049Z,-1.63
2023-03-02T03:19:08.217Z,-1.65
2023-03-02T03:22:11.120Z,-1.64
2023-03-02T03:25:12.314Z,-1.63
2023-03-02T03:28:15.388Z,-1.65
2023-03-02T03:31:16.321Z,-1.67
2023-03-02T03:34:18.124Z,-1.71
2023-03-02T03:37:18.188Z,-1.73
2023-03-02T03:40:24.110Z,-1.73
2023-03-02T03:43:25.142Z,-1.74
2023-03-02T03:46:27.142Z,-1.73
2023-03-02T03:49:29.616Z,-1.72
2023-03-02T03:52:36.156Z,-1.71
2023-03-02T03:55:42.087Z,-1.70
2023-03-02T03:58:44.243Z,-1.72
2023-03-02T04:02:07.134Z,-1.73
2023-03-02T04:05:12.132Z,-1.75
2023-03-02T04:08:13.152Z,-1.76
2023-03-02T04:11:14.286Z,-1.78
2023-03-02T04:14:15.175Z,-1.80
2023-03-02T04:17:16.164Z,-1.81
2023-03-02T04:20:18.351Z,-1.83
2023-03-02T04:23:21.231Z,-1.84
2023-03-02T04:26:22.197Z,-1.86
2023-03-02T04:29:23.257Z,-1.87
2023-03-02T04:32:26.760Z,-1.88
2023-03-02T04:35:28.328Z,-1.91
2023-03-02T04:38:28.304Z,-1.94
2023-03-02T04:41:28.221Z,-1.97
2023-03-02T04:44:28.282Z,-1.98
2023-03-02T04:47:29.258Z,-1.98
2023-03-02T04:50:34.235Z,-1.93
2023-03-02T04:53:37.507Z,-1.90
2023-03-02T04:56:37.339Z,-1.88
2023-03-02T04:59:39.570Z,-1.85
2023-03-02T05:02:40.326Z,-1.82
2023-03-02T05:05:41.234Z,-1.78
2023-03-02T05:08:41.278Z,-1.72
2023-03-02T05:11:43.292Z,-1.68
2023-03-02T05:14:37.409Z,-1.64
2023-03-02T05:17:40.317Z,-1.60
2023-03-02T05:20:40.259Z,-1.55
2023-03-02T05:23:41.425Z,-1.51
2023-03-02T05:26:47.321Z,-1.46
2023-03-02T05:29:47.418Z,-1.42
2023-03-02T05:32:47.289Z,-1.18
2023-03-02T05:35:49.568Z,-0.36
2023-03-02T05:38:49.329Z,0.52
2023-03-02T05:41:50.404Z,1.40
2023-03-02T05:44:50.318Z,2.05
2023-03-02T05:47:54.446Z,2.70
2023-03-02T05:50:54.351Z,3.40
2023-03-02T05:53:57.359Z,3.92
2023-03-02T05:56:57.394Z,4.33
2023-03-02T05:59:59.426Z,4.76
2023-03-02T06:03:27.080Z,5.08
2023-03-02T06:06:36.679Z,5.50
2023-03-02T06:09:32.465Z,5.68
2023-03-02T06:12:34.347Z,5.84
2023-03-02T06:15:37.420Z,6.14
2023-03-02T06:18:43.350Z,6.64
2023-03-02T06:21:46.742Z,6.99
2023-03-02T06:24:46.610Z,7.33
2023-03-02T06:27:47.662Z,7.77
2023-03-02T06:30:55.977Z,8.03
2023-03-02T06:33:59.503Z,8.29
2023-03-02T06:37:01.427Z,8.44
2023-03-02T06:40:12.392Z,8.59
2023-03-02T06:43:15.484Z,9.20
2023-03-02T06:46:21.309Z,9.88
2023-03-02T06:49:24.421Z,10.52
2023-03-02T06:52:26.527Z,10.82
2023-03-02T06:55:28.492Z,11.08
2023-03-02T06:58:42.417Z,11.36
2023-03-02T07:01:46.484Z,11.67
2023-03-02T07:04:50.614Z,11.73
2023-03-02T07:07:52.541Z,11.90
2023-03-02T07:10:57.562Z,12.11
2023-03-02T07:14:02.946Z,12.32
2023-03-02T07:17:09.578Z,12.22
2023-03-02T07:20:11.563Z,12.52
2023-03-02T07:23:23.159Z,12.75
2023-03-02T07:26:25.670Z,12.86
2023-03-02T07:29:40.391Z,13.17
2023-03-02T07:33:01.283Z,13.47
2023-03-02T07:36:11.629Z,13.57
2023-03-02T07:39:22.667Z,13.83
2023-03-02T07:42:28.761Z,14.11
2023-03-02T07:45:35.594Z,14.42
2023-03-02T07:48:37.633Z,14.65
2023-03-02T07:51:38.635Z,14.67
2023-03-02T07:54:42.788Z,14.53
2023-03-02T07:57:45.599Z,14.32
2023-03-02T08:00:47.657Z,14.45
2023-03-02T08:03:49.811Z,14.88
2023-03-02T08:06:51.608Z,15.10
2023-03-02T08:09:53.815Z,15.18
2023-03-02T08:12:56.753Z,15.04
2023-03-02T08:16:06.701Z,15.26
2023-03-02T08:19:07.944Z,15.59
2023-03-02T08:22:14.963Z,15.45
2023-03-02T08:25:22.878Z,14.87
2023-03-02T08:28:24.640Z,14.87
2023-03-02T08:31:26.072Z,15.22
2023-03-02T08:34:30.075Z,15.71
2023-03-02T08:37:32.657Z,16.12
2023-03-02T08:40:35.696Z,16.30
2023-03-02T08:43:36.725Z,16.02
2023-03-02T08:46:39.680Z,16.03
2023-03-02T08:49:45.082Z,16.05
2023-03-02T08:52:46.763Z,15.65
2023-03-02T08:55:49.941Z,15.31
2023-03-02T08:58:53.935Z,15.17
2023-03-02T09:01:59.078Z,15.55
2023-03-02T09:05:03.297Z,16.11
2023-03-02T09:08:09.702Z,15.95
2023-03-02T09:11:13.827Z,16.04
2023-03-02T09:14:14.779Z,16.19
2023-03-02T09:17:24.918Z,16.36
2023-03-02T09:20:31.233Z,16.45
2023-03-02T09:23:32.809Z,16.66
2023-03-02T09:26:40.058Z,16.88
2023-03-02T09:29:42.365Z,16.82
2023-03-02T09:32:43.638Z,16.17
2023-03-02T09:39:15.871Z,16.36
2023-03-02T09:42:20.011Z,15.57
2023-03-02T09:45:49.886Z,14.86
2023-03-02T09:49:23.979Z,14.85
2023-03-02T09:52:51.242Z,15.04
2023-03-02T09:55:59.943Z,14.58
2023-03-02T09:59:20.503Z,14.59
2023-03-02T10:02:52.672Z,14.91
2023-03-02T10:06:00.300Z,15.80
2023-03-02T10:09:06.147Z,16.40
2023-03-02T10:12:24.786Z,16.27
2023-03-02T10:15:30.840Z,15.85
2023-03-02T10:18:38.129Z,15.39
2023-03-02T10:21:55.106Z,15.61
2023-03-02T10:25:40.028Z,16.15
2023-03-02T10:28:45.834Z,16.78
2023-03-02T10:32:01.115Z,17.28
2023-03-02T10:35:13.147Z,17.77
2023-03-02T10:38:26.418Z,17.95
2023-03-02T10:41:35.565Z,18.28
2023-03-02T10:44:58.819Z,18.37
2023-03-02T10:48:27.482Z,17.82
2023-03-02T10:51:54.409Z,17.11
2023-03-02T10:55:05.064Z,17.36
2023-03-02T10:58:39.592Z,17.43
2023-03-02T11:01:50.845Z,17.11
2023-03-02T11:04:58.705Z,16.76
2023-03-02T11:12:33.582Z,17.50
2023-03-02T11:15:48.021Z,18.06
2023-03-02T11:18:53.029Z,18.27
2023-03-02T11:22:35.721Z,17.09
2023-03-02T11:25:54.726Z,15.80
2023-03-02T11:29:02.025Z,14.87
2023-03-02T11:32:31.633Z,14.48
2023-03-02T11:35:43.497Z,14.16
2023-03-02T11:39:15.990Z,14.36
2023-03-02T11:42:28.535Z,14.32
2023-03-02T11:45:54.458Z,13.86
2023-03-02T11:49:03.699Z,13.85
2023-03-02T11:52:12.012Z,13.84
2023-03-02T11:55:29.001Z,13.94
2023-03-02T11:58:43.553Z,14.46
2023-03-02T12:01:46.193Z,14.60
2023-03-02T12:04:51.082Z,14.53
2023-03-02T12:08:00.702Z,14.21
2023-03-02T12:11:43.580Z,13.53
2023-03-02T12:14:52.042Z,13.02
2023-03-02T12:18:01.606Z,12.52
2023-03-02T12:21:29.275Z,12.15
2023-03-02T12:24:59.162Z,11.67
2023-03-02T12:28:04.683Z,11.23
2023-03-02T12:31:22.647Z,11.65
2023-03-02T12:34:48.065Z,11.96
2023-03-02T12:38:08.223Z,11.15
2023-03-02T12:41:45.960Z,10.67
2023-03-02T12:45:12.817Z,10.44
2023-03-02T12:48:46.827Z,10.25
2023-03-02T12:52:03.281Z,10.58
2023-03-02T12:55:12.122Z,11.21
2023-03-02T12:58:14.818Z,11.48
2023-03-02T13:01:15.438Z,11.84
2023-03-02T13:04:24.740Z,12.15
2023-03-02T13:07:35.154Z,12.44
2023-03-02T13:11:01.506Z,12.93
2023-03-02T13:14:05.160Z,13.19
2023-03-02T13:17:11.790Z,13.13
2023-03-02T13:23:40.263Z,12.67
2023-03-02T13:26:48.571Z,12.11
2023-03-02T13:29:50.218Z,11.64
2023-03-02T13:33:04.567Z,11.27
2023-03-02T13:36:10.226Z,11.17
2023-03-02T13:39:13.230Z,11.30
2023-03-02T13:42:22.399Z,11.28
2023-03-02T13:45:45.396Z,11.17
2023-03-02T13:48:57.613Z,11.00
2023-03-02T13:52:19.257Z,10.63
2023-03-02T13:55:28.254Z,10.36
2023-03-02T13:58:31.511Z,10.33
2023-03-02T14:01:32.642Z,10.16
2023-03-02T14:04:34.329Z,10.20
2023-03-02T14:07:35.857Z,10.33
2023-03-02T14:10:37.240Z,9.95
2023-03-02T14:13:44.435Z,9.47
2023-03-02T14:16:44.241Z,9.00
2023-03-02T14:31:24.808Z,8.56
2023-03-02T14:34:28.068Z,8.36
2023-03-02T14:37:32.080Z,8.20
2023-03-02T14:40:39.843Z,8.04
2023-03-02T14:43:39.932Z,7.77
2023-03-02T14:46:40.837Z,7.57
2023-03-02T14:49:40.894Z,7.50
2023-03-02T14:53:01.086Z,7.44
2023-03-02T14:56:02.811Z,7.31
2023-03-02T14:59:05.799Z,7.15
2023-03-02T15:02:19.056Z,7.02
2023-03-02T15:05:33.769Z,6.91
2023-03-02T15:08:36.793Z,6.78
2023-03-02T15:11:37.765Z,6.65
2023-03-02T15:14:43.954Z,6.48
2023-03-02T15:17:47.069Z,6.31
2023-03-02T15:20:51.160Z,6.12
2023-03-02T15:23:52.813Z,5.94
2023-03-02T15:26:59.886Z,5.75
2023-03-02T15:30:00.877Z,5.58
2023-03-02T15:33:04.879Z,5.47
2023-03-02T15:36:06.881Z,5.39
2023-03-02T15:39:07.889Z,5.27
2023-03-02T15:42:10.809Z,5.17
2023-03-02T15:45:16.210Z,5.07
2023-03-02T15:48:16.970Z,5.00
2023-03-02T15:51:23.082Z,4.95
2023-03-02T15:54:23.846Z,4.91
2023-03-02T15:57:25.383Z,4.88
2023-03-02T16:00:31.290Z,4.84
2023-03-02T16:03:25.946Z,4.79
2023-03-02T16:06:26.999Z,4.77
2023-03-02T16:09:28.330Z,4.75
2023-03-02T16:12:41.607Z,4.70
2023-03-02T16:16:23.077Z,4.63
2023-03-02T16:19:31.709Z,4.54
2023-03-02T16:22:33.070Z,4.45
2023-03-02T16:25:53.269Z,4.39
2023-03-02T16:28:57.700Z,4.32
2023-03-02T16:32:10.316Z,4.26
2023-03-02T16:35:15.136Z,4.19
2023-03-02T16:38:16.075Z,4.14
2023-03-02T16:41:17.228Z,4.07
2023-03-02T16:44:18.016Z,3.99
2023-03-02T16:47:21.115Z,3.91
2023-03-02T16:50:21.112Z,3.84
2023-03-02T16:53:21.332Z,3.79
2023-03-02T16:56:22.108Z,3.74
2023-03-02T16:59:23.163Z,3.65
2023-03-02T17:02:26.960Z,3.57
2023-03-02T17:05:34.040Z,3.49
2023-03-02T17:08:39.915Z,3.42
2023-03-02T17:11:42.987Z,3.34
2023-03-02T17:14:50.960Z,3.28
2023-03-02T17:17:55.000Z,3.20
2023-03-02T17:20:56.981Z,3.13
2023-03-02T17:23:59.999Z,3.06
2023-03-02T17:27:08.593Z,2.99
2023-03-02T17:30:20.030Z,2.93
2023-03-02T17:33:23.011Z,2.86
2023-03-02T17:36:23.011Z,2.79
2023-03-02T17:39:24.028Z,2.74
2023-03-02T17:42:25.074Z,2.67
2023-03-02T17:45:32.766Z,2.60
2023-03-02T17:48:36.058Z,2.52
2023-03-02T17:52:06.102Z,2.46
2023-03-02T17:55:13.074Z,2.38
2023-03-02T17:58:20.463Z,2.30
2023-03-02T18:01:22.096Z,2.23
2023-03-02T18:04:27.160Z,2.17
2023-03-02T18:07:28.428Z,2.11
2023-03-02T18:10:33.097Z,2.05
2023-03-02T18:13:34.216Z,2.00
2023-03-02T18:16:36.127Z,1.96
2023-03-02T18:19:37.056Z,1.91
2023-03-02T18:22:38.137Z,1.88
2023-03-02T18:25:44.241Z,1.85
2023-03-02T18:28:46.169Z,1.81
2023-03-02T18:31:46.230Z,1.78
2023-03-02T18:34:52.136Z,1.74
2023-03-02T18:37:52.236Z,1.70
2023-03-02T18:40:53.416Z,1.66
2023-03-02T18:43:54.189Z,1.62
2023-03-02T18:46:56.029Z,1.57
2023-03-02T18:50:00.409Z,1.51
2023-03-02T18:53:00.224Z,1.45
2023-03-02T18:56:02.283Z,1.38
2023-03-02T18:59:03.165Z,1.30
2023-03-02T19:02:04.234Z,1.25
2023-03-02T19:05:04.600Z,1.21
2023-03-02T19:08:08.222Z,1.21
2023-03-02T19:11:12.152Z,1.21
2023-03-02T19:14:17.240Z,1.23
2023-03-02T19:17:22.196Z,1.23
2023-03-02T19:20:30.407Z,1.21
2023-03-02T19:23:32.430Z,1.15
2023-03-02T19:26:35.203Z,1.09
2023-03-02T19:29:40.446Z,1.02
2023-03-02T19:32:43.240Z,0.95
2023-03-02T19:35:46.630Z,0.90
2023-03-02T19:38:55.221Z,0.87
2023-03-02T19:41:56.276Z,0.85
2023-03-02T19:45:00.585Z,0.82
2023-03-02T19:48:01.240Z,0.78
2023-03-02T19:51:19.391Z,0.73
2023-03-02T19:54:32.573Z,0.67
2023-03-02T19:57:51.888Z,0.58
2023-03-02T20:00:55.865Z,0.52
2023-03-02T20:04:04.332Z,0.45
2023-03-02T20:07:11.040Z,0.40
2023-03-02T20:10:18.903Z,0.37
2023-03-02T20:13:21.545Z,0.35
2023-03-02T20:16:21.344Z,0.29
2023-03-02T20:19:27.338Z,0.22
2023-03-02T20:22:27.264Z,0.16
2023-03-02T20:25:28.374Z,0.13
2023-03-02T20:28:30.379Z,0.11
2023-03-02T20:31:33.455Z,0.10
2023-03-02T20:34:34.393Z,0.09
2023-03-02T20:37:34.430Z,0.07
2023-03-02T20:40:34.368Z,0.07
2023-03-02T20:43:37.332Z,0.07
2023-03-02T20:46:43.301Z,0.05
2023-03-02T20:49:44.524Z,0.02
2023-03-02T20:52:47.454Z,0.02
2023-03-02T20:55:48.338Z,0.00
2023-03-02T20:58:50.878Z,0.01
2023-03-02T21:01:53.368Z,0.02
2023-03-02T21:04:56.185Z,0.05
2023-03-02T21:07:59.106Z,0.06
2023-03-02T21:11:00.449Z,0.07
2023-03-02T21:14:02.415Z,0.08
2023-03-02T21:17:05.513Z,0.07
2023-03-02T21:20:06.430Z,0.05
2023-03-02T21:23:08.580Z,0.04
2023-03-02T21:26:09.422Z,0.03
2023-03-02T21:29:11.549Z,0.00
2023-03-02T21:32:13.598Z,-0.02
2023-03-02T21:35:16.399Z,-0.03
2023-03-02T21:38:17.622Z,-0.04
2023-03-02T21:41:20.870Z,-0.03
2023-03-02T21:44:21.532Z,-0.00
2023-03-02T21:47:21.514Z,0.03
2023-03-02T21:50:53.629Z,0.07
2023-03-02T21:53:54.634Z,0.14
2023-03-02T21:56:57.484Z,0.20
2023-03-02T22:00:00.512Z,0.26
2023-03-02T22:03:03.665Z,0.33
2023-03-02T22:06:04.490Z,0.39
2023-03-02T22:09:04.684Z,0.46
2023-03-02T22:12:04.801Z,0.53
2023-03-02T22:15:10.440Z,0.61
2023-03-02T22:18:15.484Z,0.67
2023-03-02T22:21:42.543Z,0.72
2023-03-02T22:24:48.222Z,0.77
2023-03-02T22:27:49.537Z,0.82
2023-03-02T22:30:49.499Z,0.87
2023-03-02T22:33:54.970Z,0.90
2023-03-02T22:37:00.682Z,0.92
2023-03-02T22:40:00.499Z,0.91
2023-03-02T22:43:07.504Z,0.92
2023-03-02T22:46:29.517Z,0.94
2023-03-02T22:49:31.635Z,0.97
2023-03-02T22:52:35.735Z,1.02
2023-03-02T22:55:56.586Z,1.08
2023-03-02T22:59:03.880Z,1.13
2023-03-02T23:02:13.888Z,1.17
2023-03-02T23:05:35.549Z,1.20
2023-03-02T23:08:43.096Z,1.22
2023-03-02T23:11:53.306Z,1.27
2023-03-02T23:15:05.546Z,1.30
2023-03-02T23:18:06.667Z,1.32
2023-03-02T23:21:07.631Z,1.31
2023-03-02T23:24:09.580Z,1.29
2023-03-02T23:27:10.765Z,1.27
2023-03-02T23:30:12.596Z,1.26
2023-03-02T23:33:13.609Z,1.25
2023-03-02T23:36:15.163Z,1.26
2023-03-02T23:39:15.675Z,1.28
2023-03-02T23:42:15.632Z,1.30
2023-03-02T23:45:18.624Z,1.30
2023-03-02T23:48:21.977Z,1.31
2023-03-02T23:51:21.754Z,1.33
2023-03-02T23:54:23.654Z,1.35
2023-03-02T23:57:23.627Z,1.37
